Time;durP1;ratioP1;P1;durP2;ratioP2;P2;SDS_P1;SDS_P2;PMS_P1;PMS_P2;Temp;Humidity;BMP_temperature;BMP_pressure;BME280_temperature;BME280_humidity;BME280_pressure;Samples;Min_cycle;Max_cycle;Signal;HPM_P1;HPM_P2
2021/05/23 00:00:18;;;;;;;13.65;6.22;;;;;;;13.80;100.00;99862.16;1708912;83;21086;-71
2021/05/23 00:02:46;;;;;;;14.80;6.35;;;;;;;13.78;100.00;99866.13;1702613;84;21035;-72
2021/05/23 00:05:15;;;;;;;14.45;6.25;;;;;;;13.75;100.00;99863.80;1704325;84;21099;-72
2021/05/23 00:08:03;;;;;;;16.90;6.67;;;;;;;13.71;100.00;99861.99;1704366;84;21027;-71
2021/05/23 00:10:34;;;;;;;17.45;6.85;;;;;;;13.68;100.00;99870.00;1706895;84;21054;-72
2021/05/23 00:13:02;;;;;;;13.83;6.55;;;;;;;13.66;100.00;99878.03;1684737;85;21648;-71
2021/05/23 00:15:34;;;;;;;19.02;7.85;;;;;;;13.61;100.00;99879.97;1706787;84;21042;-72
2021/05/23 00:18:00;;;;;;;19.62;8.73;;;;;;;13.59;100.00;99887.47;1645525;87;21075;-70
2021/05/23 00:20:28;;;;;;;23.83;9.50;;;;;;;13.55;100.00;99890.27;1643334;87;21055;-71
2021/05/23 00:22:54;;;;;;;28.40;11.08;;;;;;;13.53;100.00;99893.70;1643356;87;21080;-71
2021/05/23 00:25:21;;;;;;;26.15;11.35;;;;;;;13.52;100.00;99896.61;1643266;87;21163;-72
2021/05/23 00:27:48;;;;;;;24.63;10.98;;;;;;;13.52;100.00;99897.97;1643400;87;21068;-71
2021/05/23 00:30:16;;;;;;;29.80;12.50;;;;;;;13.51;100.00;99891.70;1600320;90;21111;-71
2021/05/23 00:32:43;;;;;;;28.90;12.15;;;;;;;13.50;100.00;99895.97;1643447;87;21040;-71
2021/05/23 00:35:10;;;;;;;30.65;12.25;;;;;;;13.50;100.00;99904.11;1643258;87;21068;-70
2021/05/23 00:37:38;;;;;;;38.88;14.25;;;;;;;13.49;100.00;99899.17;1650115;85;21114;-72
2021/05/23 00:40:07;;;;;;;33.05;13.30;;;;;;;13.50;100.00;99895.97;1630834;88;21089;-71
2021/05/23 00:42:35;;;;;;;31.70;14.47;;;;;;;13.47;100.00;99893.97;1616664;89;21070;-72
2021/05/23 00:45:06;;;;;;;34.92;14.58;;;;;;;13.44;100.00;99894.87;1631064;88;21689;-71
2021/05/23 00:47:33;;;;;;;36.90;15.35;;;;;;;13.40;100.00;99891.70;1630964;88;21042;-72
2021/05/23 00:50:00;;;;;;;33.05;14.68;;;;;;;13.36;100.00;99888.19;1630985;88;21093;-72
2021/05/23 00:52:27;;;;;;;36.38;15.72;;;;;;;13.33;100.00;99885.86;1631211;88;21053;-72
2021/05/23 00:54:55;;;;;;;33.88;15.98;;;;;;;13.30;100.00;99881.63;1630992;88;21086;-71
2021/05/23 00:57:23;;;;;;;39.83;16.93;;;;;;;13.25;100.00;99878.13;1630944;88;21085;-69
2021/05/23 00:59:49;;;;;;;42.23;17.15;;;;;;;13.23;100.00;99883.44;1611984;88;21065;-72
2021/05/23 01:02:46;;;;;;;40.28;18.67;;;;;;;13.21;100.00;99883.62;1618398;88;21575;-70
2021/05/23 01:05:18;;;;;;;46.28;19.23;;;;;;;13.19;100.00;99888.91;1605313;89;21540;-71
2021/05/23 01:07:44;;;;;;;46.13;19.17;;;;;;;13.17;100.00;99885.02;1606870;88;21556;-72
2021/05/23 01:10:16;;;;;;;44.58;19.25;;;;;;;13.17;100.00;99885.02;1581958;91;21167;-72
2021/05/23 01:12:59;;;;;;;42.93;17.98;;;;;;;13.16;100.00;99877.92;1503504;94;21120;-71
2021/05/23 01:15:38;;;;;;;42.53;18.67;;;;;;;13.15;100.00;99873.52;1503404;95;21685;-72
2021/05/23 01:18:14;;;;;;;38.13;16.60;;;;;;;13.10;100.00;99861.03;1526365;94;21143;-71
2021/05/23 01:20:53;;;;;;;38.58;15.63;;;;;;;13.07;100.00;99854.66;1564582;91;21589;-72
2021/05/23 01:23:27;;;;;;;37.45;15.40;;;;;;;13.06;100.00;99860.58;1548525;93;21189;-71
2021/05/23 01:26:03;;;;;;;40.12;14.38;;;;;;;13.05;100.00;99856.20;1548388;91;21102;-72
2021/05/23 01:28:26;;;;;;;34.73;13.43;;;;;;;13.05;100.00;99860.27;1551542;91;21113;-72
2021/05/23 01:30:52;;;;;;;30.75;12.80;;;;;;;13.05;100.00;99860.77;1548636;93;21227;-72
2021/05/23 01:33:20;;;;;;;30.08;11.80;;;;;;;13.04;100.00;99858.58;1529239;93;21164;-73
2021/05/23 01:35:55;;;;;;;28.55;12.05;;;;;;;13.04;100.00;99855.86;1548259;93;21171;-71
2021/05/23 01:38:21;;;;;;;27.70;10.68;;;;;;;13.04;100.00;99853.67;1542275;92;21120;-72
2021/05/23 01:40:49;;;;;;;28.23;10.85;;;;;;;13.04;100.00;99841.45;1540518;93;21092;-73
2021/05/23 01:43:16;;;;;;;25.70;9.88;;;;;;;13.03;100.00;99839.77;1549687;93;21609;-73
2021/05/23 01:45:43;;;;;;;21.87;8.63;;;;;;;13.01;100.00;99838.59;1540184;93;21139;-72
2021/05/23 01:48:10;;;;;;;22.05;8.48;;;;;;;13.01;100.00;99840.47;1521152;93;21100;-72
2021/05/23 01:50:38;;;;;;;21.45;8.15;;;;;;;13.01;100.00;99842.66;1549646;93;21107;-72
2021/05/23 01:53:05;;;;;;;18.50;7.00;;;;;;;13.02;100.00;99844.89;1540362;93;21612;-72
2021/05/23 01:55:33;;;;;;;18.52;6.95;;;;;;;13.03;100.00;99846.05;1549726;93;21211;-72
2021/05/23 01:58:02;;;;;;;13.88;6.10;;;;;;;13.07;100.00;99846.51;1540293;93;21148;-72
2021/05/23 02:00:35;;;;;;;16.17;6.33;;;;;;;13.11;100.00;99849.98;1549545;93;21111;-72
2021/05/23 02:03:06;;;;;;;17.00;6.45;;;;;;;13.15;100.00;99841.47;1513427;94;21743;-72
2021/05/23 02:05:34;;;;;;;17.52;6.15;;;;;;;13.19;100.00;99842.26;1503714;95;21136;-72
2021/05/23 02:08:02;;;;;;;15.20;5.83;;;;;;;13.23;100.00;99850.86;1503773;95;21691;-72
2021/05/23 02:10:28;;;;;;;13.72;5.45;;;;;;;13.25;100.00;99848.78;1571675;91;21209;-73
2021/05/23 02:12:57;;;;;;;14.03;5.40;;;;;;;13.26;100.00;99848.59;1577726;91;21112;-73
2021/05/23 02:15:24;;;;;;;14.03;5.50;;;;;;;13.28;100.00;99851.13;1577768;91;21128;-72
2021/05/23 02:17:50;;;;;;;16.97;5.92;;;;;;;13.28;100.00;99843.80;1577780;91;21653;-73
2021/05/23 02:20:21;;;;;;;14.05;5.70;;;;;;;13.31;100.00;99843.95;1576077;91;21139;-72
2021/05/23 02:22:49;;;;;;;12.95;5.00;;;;;;;13.33;100.00;99833.73;1526885;94;21125;-73
2021/05/23 02:25:19;;;;;;;14.38;5.60;;;;;;;13.34;100.00;99835.95;1526859;94;21158;-73
2021/05/23 02:27:50;;;;;;;16.85;6.35;;;;;;;13.34;100.00;99849.00;1526761;94;21113;-73
2021/05/23 02:32:56;;;;;;;13.18;5.70;;;;;;;13.33;100.00;99847.84;1462905;98;21149;-71
2021/05/23 02:35:27;;;;;;;14.58;5.37;;;;;;;13.36;100.00;99846.94;1452884;99;21110;-72
2021/05/23 02:37:54;;;;;;;15.93;5.33;;;;;;;13.36;100.00;99842.86;1462015;98;21188;-73
2021/05/23 02:40:23;;;;;;;11.53;4.95;;;;;;;13.38;100.00;99850.81;1463021;98;21236;-72
2021/05/23 02:42:51;;;;;;;12.13;4.97;;;;;;;13.39;100.00;99845.72;1462937;98;21173;-72
2021/05/23 02:45:18;;;;;;;12.68;5.45;;;;;;;13.40;100.00;99848.73;1456146;98;21183;-72
2021/05/23 02:47:46;;;;;;;12.10;4.85;;;;;;;13.39;100.00;99853.87;1435237;100;21185;-73
2021/05/23 02:50:16;;;;;;;9.58;4.90;;;;;;;13.40;100.00;99855.53;1453885;99;21136;-72
2021/05/23 02:52:43;;;;;;;8.68;4.65;;;;;;;13.38;100.00;99844.03;1441855;99;21246;-71
2021/05/23 02:55:11;;;;;;;14.45;5.22;;;;;;;13.37;100.00;99847.27;1441917;99;21178;-72
2021/05/23 02:57:40;;;;;;;11.30;4.42;;;;;;;13.36;100.00;99844.74;1441833;99;21150;-71
2021/05/23 03:00:09;;;;;;;11.88;4.80;;;;;;;13.34;100.00;99834.59;1453453;98;21114;-72
2021/05/23 03:02:36;;;;;;;11.28;4.53;;;;;;;13.32;100.00;99833.95;1532618;91;21107;-72
2021/05/23 03:05:11;;;;;;;10.40;4.75;;;;;;;13.31;100.00;99834.45;1554882;92;21716;-72
2021/05/23 03:07:40;;;;;;;14.38;5.22;;;;;;;13.28;100.00;99839.73;1554969;92;21111;-72
2021/05/23 03:10:14;;;;;;;14.58;5.28;;;;;;;13.28;100.00;99841.09;1554702;92;21580;-72
2021/05/23 03:12:41;;;;;;;21.00;6.00;;;;;;;13.27;100.00;99840.75;1531982;94;21665;-71
2021/05/23 03:15:12;;;;;;;20.12;6.25;;;;;;;13.26;100.00;99846.38;1531877;94;21141;-71
2021/05/23 03:17:39;;;;;;;15.70;5.17;;;;;;;13.23;100.00;99848.97;1493116;96;21667;-71
2021/05/23 03:20:07;;;;;;;11.53;4.70;;;;;;;13.23;100.00;99854.41;1480970;96;21680;-72
2021/05/23 03:22:36;;;;;;;11.57;5.65;;;;;;;13.25;100.00;99854.22;1470606;98;21111;-73
2021/05/23 03:25:05;;;;;;;10.28;4.55;;;;;;;13.28;100.00;99863.34;1448953;98;21664;-72
2021/05/23 03:27:32;;;;;;;12.50;4.58;;;;;;;13.32;100.00;99861.11;1458491;98;21126;-72
2021/05/23 03:29:59;;;;;;;15.08;5.22;;;;;;;13.36;100.00;99867.30;1482163;95;21183;-72
2021/05/23 03:32:26;;;;;;;12.90;5.37;;;;;;;13.41;100.00;99871.63;1499186;96;21123;-71
2021/05/23 03:34:53;;;;;;;11.55;4.30;;;;;;;13.44;100.00;99869.90;1499203;96;21169;-72
2021/05/23 03:37:20;;;;;;;16.23;4.70;;;;;;;13.50;100.00;99878.31;1499290;96;21122;-72
2021/05/23 03:39:47;;;;;;;10.63;4.45;;;;;;;13.57;100.00;99878.69;1512831;94;21097;-72
2021/05/23 03:42:14;;;;;;;19.85;5.20;;;;;;;13.64;100.00;99880.94;1514680;95;21109;-72
2021/05/23 03:44:42;;;;;;;13.83;4.95;;;;;;;13.74;100.00;99885.20;1514415;95;21112;-73
2021/05/23 03:47:08;;;;;;;12.50;4.87;;;;;;;13.81;100.00;99889.67;1514744;95;21112;-72
2021/05/23 03:49:38;;;;;;;20.40;5.60;;;;;;;13.90;100.00;99893.09;1514559;95;21113;-71
2021/05/23 03:52:08;;;;;;;24.40;5.80;;;;;;;13.98;100.00;99895.66;1514517;95;21587;-73
2021/05/23 03:54:35;;;;;;;18.65;5.40;;;;;;;14.05;100.00;99893.83;1466686;98;21109;-71
2021/05/23 03:57:04;;;;;;;20.57;5.47;;;;;;;14.13;100.00;99892.86;1444904;99;21666;-71
2021/05/23 03:59:30;;;;;;;15.68;5.33;;;;;;;14.22;100.00;99900.34;1462837;98;21193;-71
2021/05/23 04:01:57;;;;;;;12.88;5.15;;;;;;;14.31;100.00;99898.32;1465241;97;21133;-71
2021/05/23 04:04:24;;;;;;;12.03;4.72;;;;;;;14.40;100.00;99897.12;1471297;97;21695;-71
2021/05/23 04:06:51;;;;;;;13.48;4.87;;;;;;;14.52;100.00;99897.38;1471403;97;21160;-73
2021/05/23 04:09:18;;;;;;;26.35;6.20;;;;;;;14.66;100.00;99892.39;1481830;96;21142;-72
2021/05/23 04:11:49;;;;;;;19.35;6.37;;;;;;;14.84;100.00;99893.20;1529769;94;21171;-72
2021/05/23 04:14:15;;;;;;;14.05;4.92;;;;;;;15.02;100.00;99891.28;1544527;91;21643;-72
2021/05/23 04:16:41;;;;;;;16.45;5.45;;;;;;;15.22;100.00;99883.16;1567039;91;21091;-73
2021/05/23 04:19:10;;;;;;;12.05;4.80;;;;;;;15.43;100.00;99883.53;1566633;91;21157;-72
2021/05/23 04:21:36;;;;;;;12.43;4.80;;;;;;;15.69;100.00;99877.28;1564237;92;21573;-71
2021/05/23 04:24:04;;;;;;;16.35;5.10;;;;;;;15.98;100.00;99883.40;1562417;92;21085;-73
2021/05/23 04:26:30;;;;;;;10.98;4.22;;;;;;;16.30;100.00;99876.76;1562297;92;21133;-72
2021/05/23 04:28:58;;;;;;;8.78;4.33;;;;;;;16.65;100.00;99873.74;1562298;92;21065;-72
2021/05/23 04:31:24;;;;;;;12.03;4.42;;;;;;;16.98;100.00;99875.02;1562516;92;21073;-73
2021/05/23 04:33:51;;;;;;;9.63;4.35;;;;;;;17.29;100.00;99882.94;1562236;92;21096;-73
2021/05/23 04:36:18;;;;;;;9.98;4.45;;;;;;;17.61;100.00;99878.30;1562228;92;21065;-73
2021/05/23 04:38:45;;;;;;;12.47;4.70;;;;;;;17.90;100.00;99884.24;1562203;92;21093;-72
2021/05/23 04:41:14;;;;;;;8.65;4.33;;;;;;;18.09;100.00;99885.11;1562133;92;21109;-72
2021/05/23 04:43:40;;;;;;;12.82;4.47;;;;;;;18.26;100.00;99885.39;1562207;92;21117;-72
2021/05/23 04:46:07;;;;;;;11.18;4.10;;;;;;;18.48;100.00;99892.63;1562224;92;21133;-73
2021/05/23 04:48:34;;;;;;;9.83;4.50;;;;;;;18.69;100.00;99885.88;1562201;92;21527;-72
2021/05/23 04:51:01;;;;;;;13.68;4.87;;;;;;;18.92;100.00;99889.86;1600601;86;21083;-73
2021/05/23 04:53:28;;;;;;;12.47;5.15;;;;;;;19.13;100.00;99893.48;1687339;85;21082;-73
2021/05/23 04:55:55;;;;;;;10.23;5.05;;;;;;;19.33;100.00;99887.72;1659707;85;21059;-74
2021/05/23 04:58:22;;;;;;;11.55;5.08;;;;;;;19.52;100.00;99889.88;1704923;84;21076;-72
2021/05/23 05:00:48;;;;;;;12.73;5.33;;;;;;;19.66;100.00;99891.89;1687344;85;21063;-73
2021/05/23 05:03:15;;;;;;;11.57;4.97;;;;;;;19.78;100.00;99891.10;1678139;85;21063;-73
2021/05/23 05:05:42;;;;;;;9.63;5.20;;;;;;;19.87;100.00;99885.05;1688477;85;21560;-73
2021/05/23 05:08:08;;;;;;;13.30;4.80;;;;;;;20.05;100.00;99890.98;1688624;84;21089;-73
2021/05/23 05:10:36;;;;;;;14.00;5.10;;;;;;;20.29;100.00;99886.34;1688611;85;21081;-73
2021/05/23 05:13:02;;;;;;;11.95;5.10;;;;;;;20.57;100.00;99889.42;1688585;85;21084;-73
2021/05/23 05:15:31;;;;;;;14.58;5.40;;;;;;;20.82;100.00;99888.65;1688609;85;21165;-73
2021/05/23 05:17:58;;;;;;;14.40;5.25;;;;;;;21.00;100.00;99887.64;1688456;85;21589;-72
2021/05/23 05:20:27;;;;;;;12.80;5.40;;;;;;;21.07;100.00;99891.63;1705562;84;21039;-74
2021/05/23 05:22:53;;;;;;;13.78;5.35;;;;;;;21.13;100.00;99888.44;1713921;84;21632;-74
2021/05/23 05:25:20;;;;;;;10.00;5.28;;;;;;;21.18;100.00;99890.74;1685310;85;21029;-73
2021/05/23 05:27:48;;;;;;;13.95;5.37;;;;;;;21.28;100.00;99889.27;1726980;83;21581;-74
2021/05/23 05:30:16;;;;;;;11.45;5.15;;;;;;;21.41;100.00;99892.56;1685317;85;21065;-73
2021/05/23 05:32:43;;;;;;;10.48;4.92;;;;;;;21.52;100.00;99888.11;1727126;83;21020;-74
2021/05/23 05:35:11;;;;;;;10.35;5.50;;;;;;;21.74;100.00;99888.77;1685335;85;21036;-74
2021/05/23 05:37:38;;;;;;;10.53;5.08;;;;;;;21.95;100.00;99888.58;1685381;85;21102;-74
2021/05/23 05:40:06;;;;;;;10.98;5.50;;;;;;;22.15;100.00;99883.41;1672358;85;21060;-74
2021/05/23 05:42:33;;;;;;;13.50;5.05;;;;;;;22.38;100.00;99889.81;1683651;85;21214;-74
2021/05/23 05:45:00;;;;;;;9.45;4.55;;;;;;;22.60;100.00;99884.92;1683837;85;21584;-74
2021/05/23 05:47:26;;;;;;;11.00;5.00;;;;;;;22.78;100.00;99879.09;1683671;85;21096;-73
2021/05/23 05:49:54;;;;;;;10.20;4.87;;;;;;;22.85;100.00;99881.11;1683606;85;21087;-74
2021/05/23 05:52:21;;;;;;;13.32;4.78;;;;;;;22.90;100.00;99874.84;1683495;85;21156;-74
2021/05/23 05:54:49;;;;;;;12.23;5.30;;;;;;;23.06;100.00;99878.64;1683761;85;21087;-74
2021/05/23 05:57:16;;;;;;;9.08;4.50;;;;;;;23.29;100.00;99871.45;1683765;85;21091;-74
2021/05/23 05:59:43;;;;;;;10.50;4.40;;;;;;;23.58;100.00;99869.80;1683606;85;21556;-73
2021/05/23 06:02:10;;;;;;;11.48;4.20;;;;;;;23.83;100.00;99868.41;1674630;85;21058;-73
2021/05/23 06:04:37;;;;;;;8.23;4.10;;;;;;;24.04;100.00;99872.17;1659723;86;21043;-75
2021/05/23 06:07:04;;;;;;;10.65;3.75;;;;;;;24.21;98.32;99872.03;1659466;86;21094;-74
2021/05/23 06:09:33;;;;;;;9.15;4.30;;;;;;;24.32;99.84;99861.31;1659193;86;21401;-74
2021/05/23 06:11:59;;;;;;;8.73;4.22;;;;;;;24.59;100.00;99865.92;1658824;86;21134;-73
2021/05/23 06:14:26;;;;;;;9.35;4.08;;;;;;;24.80;96.20;99868.23;1659599;86;21066;-73
2021/05/23 06:16:56;;;;;;;16.75;4.08;;;;;;;24.97;98.71;99858.37;1659459;86;21102;-75
2021/05/23 06:19:23;;;;;;;8.53;3.05;;;;;;;25.14;91.55;99857.60;1666021;85;21062;-74
2021/05/23 06:21:49;;;;;;;7.33;4.08;;;;;;;25.18;90.42;99854.56;1687279;85;21051;-76
2021/05/23 06:24:17;;;;;;;5.72;2.80;;;;;;;25.15;82.12;99856.48;1687391;85;21032;-74
2021/05/23 06:26:44;;;;;;;6.28;3.02;;;;;;;24.92;86.09;99863.87;1687311;85;21079;-75
2021/05/23 06:29:10;;;;;;;6.50;2.70;;;;;;;24.91;87.47;99858.88;1687165;85;21014;-74
2021/05/23 06:31:38;;;;;;;3.42;2.00;;;;;;;25.15;93.76;99860.62;1687174;85;21066;-75
2021/05/23 06:34:05;;;;;;;4.35;1.72;;;;;;;25.41;84.75;99855.20;1687159;85;21054;-75
2021/05/23 06:36:31;;;;;;;3.98;2.12;;;;;;;25.61;81.40;99854.95;1687152;85;21047;-75
2021/05/23 06:38:58;;;;;;;5.22;2.42;;;;;;;25.80;81.01;99856.59;1694739;82;21051;-76
2021/05/23 06:41:25;;;;;;;5.67;2.83;;;;;;;26.04;82.61;99856.34;1728519;83;21076;-76
2021/05/23 06:43:52;;;;;;;5.92;2.40;;;;;;;26.16;76.72;99851.91;1715431;84;21533;-77
2021/05/23 06:46:19;;;;;;;3.85;2.42;;;;;;;26.24;73.33;99860.20;1728504;83;21047;-75
2021/05/23 06:48:47;;;;;;;5.03;2.90;;;;;;;26.41;74.07;99848.25;1708994;82;21094;-77
2021/05/23 06:51:14;;;;;;;7.03;2.65;;;;;;;26.58;71.40;99850.72;1709031;84;21003;-75
2021/05/23 06:53:42;;;;;;;6.90;2.30;;;;;;;26.68;74.64;99856.27;1709112;84;21055;-76
2021/05/23 06:56:11;;;;;;;5.90;2.10;;;;;;;26.68;69.11;99853.48;1709071;83;21046;-76
2021/05/23 06:58:38;;;;;;;5.95;2.50;;;;;;;26.59;71.01;99850.14;1708782;83;21058;-76
2021/05/23 07:01:05;;;;;;;3.25;1.80;;;;;;;26.66;68.60;99847.37;1709321;84;21524;-75
2021/05/23 07:03:32;;;;;;;4.03;2.30;;;;;;;26.80;64.31;99850.94;1699913;83;21118;-76
2021/05/23 07:05:59;;;;;;;7.17;2.50;;;;;;;26.96;66.46;99851.13;1686838;85;21608;-75
2021/05/23 07:08:26;;;;;;;5.33;2.50;;;;;;;27.08;61.81;99850.24;1682910;85;21129;-76
2021/05/23 07:10:53;;;;;;;9.55;2.25;;;;;;;26.86;68.57;99849.79;1659175;86;21061;-75
2021/05/23 07:13:22;;;;;;;6.47;2.35;;;;;;;26.81;68.20;99853.44;1682756;85;21097;-76
2021/05/23 07:15:50;;;;;;;5.87;2.12;;;;;;;26.89;67.87;99845.89;1659039;86;21058;-75
2021/05/23 07:18:17;;;;;;;8.33;1.90;;;;;;;27.02;60.07;99853.32;1682921;85;21554;-75
2021/05/23 07:20:45;;;;;;;6.35;2.08;;;;;;;27.12;58.37;99863.55;1679981;85;21039;-75
2021/05/23 07:23:13;;;;;;;6.20;2.00;;;;;;;27.21;55.10;99857.67;1726338;83;21163;-75
2021/05/23 07:25:41;;;;;;;2.47;1.82;;;;;;;27.30;56.53;99859.31;1696692;84;21153;-75
2021/05/23 07:28:07;;;;;;;4.65;1.70;;;;;;;27.37;57.04;99861.21;1696378;84;21064;-76
2021/05/23 07:30:34;;;;;;;4.70;1.95;;;;;;;27.31;51.37;99863.20;1712452;84;21047;-74
2021/05/23 07:33:01;;;;;;;7.70;2.45;;;;;;;27.20;52.00;99866.56;1696426;84;21127;-75
2021/05/23 07:35:28;;;;;;;2.15;1.70;;;;;;;27.07;49.65;99870.80;1712627;84;21039;-76
2021/05/23 07:37:57;;;;;;;2.85;1.77;;;;;;;26.74;50.03;99867.31;1697437;84;21147;-75
2021/05/23 07:40:25;;;;;;;5.80;1.82;;;;;;;26.57;56.86;99874.56;1696749;84;21071;-75
2021/05/23 07:42:52;;;;;;;3.70;2.52;;;;;;;26.81;53.88;99870.64;1697437;84;21096;-75
2021/05/23 07:45:19;;;;;;;4.87;2.20;;;;;;;27.04;54.51;99876.91;1695628;85;21631;-76
2021/05/23 07:47:46;;;;;;;5.03;2.08;;;;;;;27.07;53.95;99875.50;1724183;83;21115;-76
2021/05/23 07:50:14;;;;;;;3.12;2.12;;;;;;;26.87;60.51;99875.04;1695291;85;21079;-75
2021/05/23 07:52:42;;;;;;;6.33;1.95;;;;;;;26.95;63.82;99871.69;1695184;84;21103;-75
2021/05/23 07:55:11;;;;;;;6.75;2.72;;;;;;;27.24;65.22;99869.03;1695565;84;21099;-74
2021/05/23 07:57:37;;;;;;;7.05;2.00;;;;;;;27.41;55.25;99877.02;1724316;83;21040;-74
2021/05/23 08:00:07;;;;;;;5.25;2.02;;;;;;;27.24;54.65;99884.86;1695301;85;21072;-77
2021/05/23 08:02:34;;;;;;;4.03;2.00;;;;;;;27.13;52.92;99881.31;1688028;84;21581;-74
2021/05/23 08:05:01;;;;;;;4.40;2.22;;;;;;;26.96;51.98;99883.61;1679242;85;21052;-74
2021/05/23 08:07:27;;;;;;;3.87;2.30;;;;;;;26.79;54.92;99882.02;1678975;85;21040;-75
2021/05/23 08:09:56;;;;;;;3.60;1.95;;;;;;;26.70;50.22;99885.07;1679165;84;21075;-75
2021/05/23 08:12:23;;;;;;;8.23;2.72;;;;;;;26.65;55.71;99886.50;1679412;85;21068;-74
2021/05/23 08:14:51;;;;;;;3.42;2.00;;;;;;;27.04;60.58;99886.63;1678995;84;21087;-75
2021/05/23 08:17:20;;;;;;;17.45;3.15;;;;;;;27.56;53.65;99890.53;1679073;85;21119;-75
2021/05/23 08:19:48;;;;;;;6.20;3.22;;;;;;;28.01;54.44;99879.66;1690533;84;21060;-73
2021/05/23 08:22:14;;;;;;;18.92;6.05;;;;;;;28.37;50.04;99878.50;1707214;84;21616;-75
2021/05/23 08:24:41;;;;;;;15.40;5.42;;;;;;;28.57;46.64;99883.86;1707295;84;21044;-75
2021/05/23 08:27:08;;;;;;;7.12;4.87;;;;;;;28.74;48.35;99879.23;1707468;84;21059;-74
2021/05/23 08:29:35;;;;;;;16.37;5.75;;;;;;;29.03;44.87;99888.63;1707375;84;21047;-74
2021/05/23 08:32:01;;;;;;;9.80;5.20;;;;;;;29.02;43.42;99890.58;1707391;84;21604;-74
2021/05/23 08:34:28;;;;;;;42.78;6.65;;;;;;;28.92;41.76;99894.31;1707196;84;21078;-74
2021/05/23 08:36:55;;;;;;;11.70;5.10;;;;;;;28.71;42.48;99895.11;1707370;84;21078;-73
2021/05/23 08:39:22;;;;;;;9.90;5.20;;;;;;;28.53;44.73;99899.45;1707266;84;21107;-75
2021/05/23 08:41:49;;;;;;;9.95;5.15;;;;;;;28.65;48.09;99891.28;1707425;84;21056;-75
2021/05/23 08:44:20;;;;;;;12.63;5.50;;;;;;;28.93;50.61;99882.61;1707492;84;21079;-75
2021/05/23 08:46:50;;;;;;;12.53;5.10;;;;;;;29.23;46.42;99883.37;1707370;84;21595;-74
2021/05/23 08:49:20;;;;;;;13.38;5.00;;;;;;;29.25;43.25;99890.85;1707229;84;21055;-73
2021/05/23 08:51:47;;;;;;;9.20;4.45;;;;;;;28.90;40.18;99894.35;1633887;88;21081;-75
2021/05/23 08:54:15;;;;;;;9.95;5.28;;;;;;;28.37;46.60;99891.83;1633838;88;21166;-75
2021/05/23 08:56:43;;;;;;;12.78;4.72;;;;;;;28.36;50.51;99886.55;1634031;88;21101;-75
2021/05/23 08:59:11;;;;;;;8.73;4.45;;;;;;;28.66;49.89;99884.03;1634023;88;21106;-75
2021/05/23 09:01:38;;;;;;;13.45;5.50;;;;;;;28.99;48.41;99878.65;1630789;88;21120;-75
2021/05/23 09:04:07;;;;;;;14.75;5.70;;;;;;;29.14;47.05;99875.64;1614121;89;21131;-73
2021/05/23 09:06:36;;;;;;;11.45;5.40;;;;;;;29.31;47.23;99880.74;1614239;89;21601;-76
2021/05/23 09:09:07;;;;;;;10.88;5.62;;;;;;;29.55;48.60;99864.52;1614200;89;21095;-75
2021/05/23 09:11:35;;;;;;;14.30;5.70;;;;;;;29.81;46.64;99867.76;1614283;89;21093;-75
2021/05/23 09:14:06;;;;;;;9.25;5.67;;;;;;;30.02;47.78;99864.06;1614128;89;21139;-76
2021/05/23 09:16:39;;;;;;;13.83;5.80;;;;;;;30.21;45.62;99868.20;1614391;88;21593;-76
2021/05/23 09:19:07;;;;;;;9.83;5.67;;;;;;;30.33;43.80;99865.47;1595845;89;21174;-76
2021/05/23 09:21:38;;;;;;;11.75;5.90;;;;;;;30.32;42.61;99861.86;1601565;89;21100;-76
2021/05/23 09:24:07;;;;;;;14.55;6.03;;;;;;;30.17;43.01;99861.55;1601571;89;21109;-76
2021/05/23 09:26:48;;;;;;;13.70;6.47;;;;;;;30.18;44.59;99859.04;1601367;89;21153;-79
2021/05/23 09:29:20;;;;;;;16.20;6.15;;;;;;;30.23;43.73;99863.14;1583008;89;21098;-77
2021/05/23 09:34:27;;;;;;;13.30;5.95;;;;;;;30.52;44.13;99853.69;1453885;99;21584;-75
2021/05/23 09:36:53;;;;;;;10.72;4.65;;;;;;;30.63;42.37;99859.34;1454085;99;21078;-78
2021/05/23 09:39:20;;;;;;;8.83;4.47;;;;;;;30.69;38.80;99859.22;1453916;97;21190;-80
2021/05/23 09:41:48;;;;;;;9.38;4.42;;;;;;;30.74;40.22;99855.78;1490654;96;21673;-78
2021/05/23 09:44:23;;;;;;;11.60;4.12;;;;;;;30.90;40.47;99854.89;1490559;96;21131;-76
2021/05/23 09:47:12;;;;;;;6.30;3.90;;;;;;;31.13;36.91;99861.95;1472649;96;21139;-77
2021/05/23 09:49:46;;;;;;;9.28;4.22;;;;;;;31.13;38.75;99859.16;1500702;95;21120;-78
2021/05/23 09:52:15;;;;;;;8.20;4.50;;;;;;;31.16;36.49;99850.98;1499472;95;21108;-78
2021/05/23 09:54:48;;;;;;;12.18;4.67;;;;;;;31.21;39.62;99855.05;1501757;95;21128;-75
2021/05/23 09:57:21;;;;;;;8.73;4.00;;;;;;;31.35;36.20;99866.78;1501782;95;21137;-77
2021/05/23 10:00:05;;;;;;;8.83;4.10;;;;;;;31.06;36.24;99858.21;1487049;96;21174;-76
2021/05/23 10:02:32;;;;;;;7.10;3.42;;;;;;;30.85;37.33;99858.60;1480448;96;21629;-76
2021/05/23 10:05:07;;;;;;;5.47;3.20;;;;;;;30.92;34.80;99850.39;1474802;97;21136;-79
2021/05/23 10:07:34;;;;;;;12.03;3.20;;;;;;;31.08;34.49;99853.13;1456927;98;21625;-77
2021/05/23 10:10:01;;;;;;;5.62;3.33;;;;;;;31.19;33.34;99847.56;1457156;98;21496;-76
2021/05/23 10:12:28;;;;;;;7.10;3.70;;;;;;;31.18;33.51;99845.08;1456959;98;21165;-77
2021/05/23 10:14:57;;;;;;;7.30;3.98;;;;;;;31.04;34.16;99843.70;1456250;96;21643;-77
2021/05/23 10:17:25;;;;;;;10.25;4.47;;;;;;;30.99;33.92;99838.27;1452616;97;21133;-78
2021/05/23 10:19:52;;;;;;;12.43;4.45;;;;;;;30.64;32.99;99840.05;1452705;99;21703;-78
2021/05/23 10:22:19;;;;;;;11.33;4.70;;;;;;;30.05;34.02;99832.80;1436053;99;21146;-78
2021/05/23 10:24:53;;;;;;;12.25;4.87;;;;;;;29.50;37.05;99836.19;1490750;94;21140;-79
2021/05/23 10:27:24;;;;;;;19.82;5.30;;;;;;;29.39;39.65;99837.45;1527343;94;21158;-78
2021/05/23 10:29:53;;;;;;;7.97;4.58;;;;;;;29.60;39.96;99837.97;1563595;92;21118;-78
2021/05/23 10:32:24;;;;;;;7.58;4.50;;;;;;;30.06;39.21;99830.25;1504431;95;21117;-76
2021/05/23 10:34:50;;;;;;;23.47;5.05;;;;;;;30.34;36.55;99828.09;1504422;95;21621;-77
2021/05/23 10:37:28;;;;;;;10.68;4.85;;;;;;;30.33;35.84;99834.22;1504621;95;21155;-76
2021/05/23 10:39:57;;;;;;;11.65;5.05;;;;;;;30.31;39.01;99831.48;1506524;93;21254;-78
2021/05/23 10:42:31;;;;;;;10.15;4.33;;;;;;;30.56;38.28;99833.83;1515706;95;21116;-77
2021/05/23 10:44:59;;;;;;;8.83;4.60;;;;;;;30.62;34.94;99838.15;1519388;94;21091;-76
2021/05/23 10:47:32;;;;;;;11.95;4.85;;;;;;;30.43;36.43;99834.63;1515834;95;21186;-75
2021/05/23 10:50:02;;;;;;;;;;;;;;;30.23;35.32;99835.83;1521458;94;21629;-77
2021/05/23 10:52:31;;;;;;;11.45;4.92;;;;;;;29.80;33.75;99835.47;1519424;94;20209;-79
2021/05/23 10:55:03;;;;;;;12.10;4.97;;;;;;;29.23;37.04;99845.78;1515865;95;21139;-76
2021/05/23 10:57:48;;;;;;;10.85;4.90;;;;;;;28.76;37.09;99841.37;1562020;90;21108;-74
2021/05/23 11:00:28;;;;;;;7.55;4.75;;;;;;;28.18;38.06;99845.05;1615154;89;21055;-78
2021/05/23 11:02:56;;;;;;;8.30;4.30;;;;;;;27.79;42.13;99845.92;1618967;88;21078;-75
2021/05/23 11:05:28;;;;;;;7.35;3.92;;;;;;;27.79;43.10;99854.25;1636854;88;21640;-78
2021/05/23 11:08:04;;;;;;;9.83;3.60;;;;;;;27.96;42.89;99844.97;1636968;88;21568;-75
2021/05/23 11:10:41;;;;;;;5.42;3.40;;;;;;;28.33;44.63;99839.33;1636634;88;21095;-76
2021/05/23 11:13:10;;;;;;;5.60;2.95;;;;;;;28.89;44.44;99842.02;1634887;88;21107;-75
2021/05/23 11:15:45;;;;;;;4.60;2.70;;;;;;;29.51;43.18;99842.01;1636580;88;21091;-76
2021/05/23 11:18:26;;;;;;;11.00;3.05;;;;;;;30.03;41.60;99845.37;1636727;88;21031;-76
2021/05/23 11:21:00;;;;;;;4.60;2.50;;;;;;;30.34;37.71;99840.64;1636663;88;21091;-76
2021/05/23 11:23:28;;;;;;;6.15;2.92;;;;;;;30.16;36.93;99837.62;1636856;88;21176;-77
2021/05/23 11:26:10;;;;;;;7.50;2.70;;;;;;;29.86;38.62;99839.81;1614770;88;21080;-75
2021/05/23 11:28:38;;;;;;;;;;;;;;;29.84;41.24;99849.05;1644102;87;21057;-76
2021/05/23 11:31:06;;;;;;;7.22;3.45;;;;;;;29.99;39.67;99852.12;1673449;86;20205;-76
2021/05/23 11:33:32;;;;;;;7.42;3.30;;;;;;;30.01;40.96;99844.28;1659659;85;21521;-75
2021/05/23 11:35:59;;;;;;;7.25;3.37;;;;;;;29.87;41.57;99854.02;1682526;85;21036;-75